neil on the web!

ADDS Results

0354 UTC 13 December 2019

EGJB 130250Z 30026G37KT 9999 VCSH FEW015CB SCT025 09/03 Q0981
TAF EGJB 130159Z 1303/1312 27026G40KT 9999 FEW006 SCT015
TEMPO 1303/1312 29035G52KT
PROB40
TEMPO 1303/1312 7000 SHRA BKN013TCU
PROB30
TEMPO 1303/1310 4000 +SHRAGS BKN012CB
EGJJ 130320Z AUTO 29031G44KT 9999 FEW029/// 08/05 Q0981 RESHRA
EGJJ 130250Z AUTO 29026G40KT 9999 FEW028/// 09/05 Q0981 REDZ
EGJJ 130220Z AUTO 29024G44KT 9999 DZ FEW022/// SCT026/// BKN040/// 09/06 Q0980
RERA
TAF EGJJ 130159Z 1303/1312 27026G40KT 9999 FEW006 SCT015
TEMPO 1303/1312 29035G52KT
PROB40
TEMPO 1303/1312 7000 SHRA BKN013TCU
PROB30
TEMPO 1303/1310 4000 +SHRAGS BKN012CB
EGKK 130320Z 27017KT 9999 FEW014 BKN018 07/05 Q0972
EGKK 130250Z 27015KT 9999 FEW014 BKN025 07/05 Q0972
EGKK 130220Z 28014KT 9999 -RA SCT014 BKN024 07/06 Q0971
TAF EGKK 122300Z 1300/1406 22010KT 9999 SCT030
TEMPO 1300/1305 7000 RA BKN012
PROB40
TEMPO 1300/1303 24015G25KT 4000 +RA BKN008
BECMG 1303/1305 27015G25KT
BECMG 1316/1319 25010KT
EGSS 130320Z AUTO 31007KT 9999 -RA SCT012/// BKN018/// BKN025/// //////TCU 06/05
Q0971
EGSS 130250Z AUTO 29007KT 250V330 9999 -RA BKN012/// BKN021/// OVC031///
//////TCU 06/05 Q0970
EGSS 130220Z AUTO 29006KT 260V320 9000 -RA SCT004/// BKN008/// BKN018///
//////TCU 06/06 Q0970 RERA
TAF AMD EGSS 130155Z 1301/1406 20008KT 9999 FEW004 SCT012
BECMG 1301/1304 26015KT
TEMPO 1301/1305 6000 SHRA BKN010
PROB30
TEMPO 1301/1304 3000 +SHRA BKN004
TEMPO 1302/1324 27018G28KT
PROB30
TEMPO 1304/1307 BKN007
EGGW 130320Z AUTO 28017KT 9999 -RA BKN011 OVC018 05/05 Q0971
EGGW 130250Z AUTO 28013KT 9999 -RA BKN006/// OVC036/// //////TCU 05/05 Q0970
EGGW 130220Z AUTO 29011KT 9999 -RA OVC004/// //////TCU 05/05 Q0970
TAF AMD EGGW 130214Z 1302/1324 28012KT 9999 FEW003 SCT008
TEMPO 1302/1304 6000 SHRA BKN010
TEMPO 1302/1324 29018G28KT
PROB30
TEMPO 1302/1304 3000 +SHRA BKN004
PROB30
TEMPO 1304/1307 BKN007
EGSH 130320Z AUTO 21004KT 9999 FEW006/// BKN047/// 06/06 Q0970
EGSH 130250Z AUTO 19003KT 9999 BKN041/// 06/06 Q0970
EGSH 130220Z AUTO 19005KT 9999 OVC040/// 07/06 Q0970
TAF EGSH 130158Z 1303/1312 20006KT 9999 FEW006 SCT025
TEMPO 1303/1309 6000 RA BKN012
PROB30
TEMPO 1303/1307 3000 +RA BKN004
TEMPO 1306/1312 18015G25KT
EGLC 130320Z AUTO 28015KT 9999 -RA SCT014/// BKN020/// OVC040/// //////TCU 08/05
Q0971
EGLC 130250Z AUTO 27012KT 9999 -RA SCT013/// BKN022/// OVC042/// //////TCU 07/05
Q0971 RERA
EGLC 130220Z AUTO 29013KT 9999 -RA FEW018 SCT029 BKN037 07/05 Q0971
TAF EGLC 130223Z 1303/1312 28017G27KT 9999 SCT018
PROB30
TEMPO 1303/1304 6000 RA BKN014
EGMC 130250Z 25009KT 8000 -RA FEW008 BKN010 07/06 Q0970
EGMC 130220Z 22006KT 6000 -RA FEW008 BKN023 06/06 Q0970
TAF EGMC 130159Z 1303/1312 22010KT 9999 SCT030
BECMG 1303/1305 28012KT
TEMPO 1303/1309 6000 RA BKN010
PROB40
TEMPO 1303/1306 26015G25KT
PROB30
TEMPO 1303/1309 3000 +RA BKN007
TEMPO 1306/1312 28015G25KT
EGLL 130320Z AUTO 28015KT 9999 BKN024 OVC043 07/05 Q0972 NOSIG
EGLL 130250Z AUTO 29015KT 9999 BKN023 BKN031 OVC049 07/06 Q0972 NOSIG
EGLL 130220Z AUTO 28011KT 9999 -RA BKN020 BKN030 OVC039 07/06 Q0971 NOSIG
TAF EGLL 122256Z 1300/1406 22008KT 9999 SCT025
PROB40
TEMPO 1300/1304 4000 +SHRA BKN012
BECMG 1301/1304 28016G26KT
PROB30
TEMPO 1304/1310 7000 SHRA BKN014
BECMG 1317/1320 24012KT
TAF EGHI 121956Z 1221/1223 23008KT 9999 FEW010 BKN020
TEMPO 1221/1223 6000 SHRA
PROB30
TEMPO 1221/1223 23015G25KT 3000 +SHRA BKN014
TAF EGHH 121956Z 1221/1306 26012KT 9999 FEW010 BKN020
BECMG 1221/1224 28016G30KT
TEMPO 1221/1224 6000 SHRA
PROB30
TEMPO 1221/1224 22015G25KT 3000 +SHRA BKN014
PROB30
TEMPO 1300/1306 BKN014
EGCC 130320Z AUTO 24009KT 5000 -RA BKN004/// BKN007/// OVC013/// //////CB 05/05
Q0971 RERA
EGCC 130250Z AUTO 25007KT 9999 -RA BKN015 05/04 Q0971 TEMPO RA BKN014
EGCC 130220Z AUTO 25006KT 9999 -RA SCT024 OVC030 05/05 Q0970 RERA TEMPO RA
TAF AMD EGCC 130346Z 1303/1406 21008KT 9999 SCT020
TEMPO 1303/1305 8000 -RA
PROB30
TEMPO 1303/1305 4000 RA BKN004
TEMPO 1305/1320 27017G27KT 7000 SHRA BKN012
PROB30
TEMPO 1305/1319 3000 +SHRA BKN009
PROB30
TEMPO 1320/1324 27015G25KT 8000 -SHRA
EGNX 130320Z 27011KT 9999 BKN007 05/05 Q0971
EGNX 130250Z 26011KT 9999 SCT007 OVC039 05/05 Q0970
EGNX 130220Z 27009KT 9999 -RA BKN032 05/05 Q0970
TAF AMD EGNX 130328Z 1303/1324 27012KT 9999 BKN007
TEMPO 1303/1307 8000 -RA
PROB30
TEMPO 1303/1307 RA
BECMG 1304/1307 SCT030
TEMPO 1304/1324 26018G28KT
TEMPO 1304/1319 6000 SHRA BKN012
EGGP 130320Z 29017KT 9999 -RA SCT020 07/07 Q0971
EGGP 130250Z 30013KT 9999 -RA SCT020 07/07 Q0971
EGGP 130220Z 27011KT 9999 -RA SCT020 06/06 Q0971
TAF AMD EGGP 130222Z 1302/1324 26006KT 9999 SCT025
BECMG 1302/1305 26016KT
TEMPO 1302/1324 6000 SHRA BKN012
PROB30
TEMPO 1302/1324 3000 +SHRA BKN009
TEMPO 1303/1324 27020G30KT
EGNM 130320Z 27013KT 9999 FEW016 04/02 Q0969
EGNM 130250Z 26011KT 9999 FEW012 BKN018 04/03 Q0969
EGNM 130220Z 26010KT 9999 FEW012 BKN018 04/03 Q0968
TAF EGNM 122254Z 1300/1324 25010KT 9999 SCT025
TEMPO 1300/1304 8000 -RA
PROB30
TEMPO 1300/1304 RA BKN006
TEMPO 1304/1324 9000 -SHRA BKN009
BECMG 1312/1315 27015G25KT
PROB30
TEMPO 1315/1321 SHRA
EGBB 130320Z 30011KT 5000 RA BKN012 OVC016 05/04 Q0972
EGBB 130250Z 29013KT 8000 -RA BKN011 OVC035 06/04 Q0971
EGBB 130220Z 28011KT 8000 -RA BKN016 OVC032 06/04 Q0971
TAF EGBB 122309Z 1300/1324 19008KT 9999 SCT025
BECMG 1300/1303 28012KT
TEMPO 1300/1318 6000 SHRA BKN012
TEMPO 1301/1324 26015G25KT
EGGD 130320Z AUTO 27021KT 9999 SCT019 BKN023 BKN029 05/03 Q0976
EGGD 130250Z AUTO 27023KT 9999 BKN026 OVC038 05/03 Q0975
EGGD 130220Z AUTO 27022KT 9999 FEW022 SCT027 BKN031 06/03 Q0975
TAF EGGD 122300Z 1300/1324 28018G28KT 9999 SCT010 BKN025
TEMPO 1300/1303 7000 SHRA BKN008
PROB30
TEMPO 1303/1312 7000 SHRA BKN008
PROB30
TEMPO 1309/1316 28025G38KT
BECMG 1316/1319 27012KT
PROB30
TEMPO 1319/1324 27015G25KT
EGFF 130320Z AUTO 29027G38KT 9999 -RA SCT027 OVC039 07/03 Q0976
EGFF 130250Z AUTO 30030KT 9999 FEW029 BKN037 OVC044 07/03 Q0976
EGFF 130220Z AUTO 30026KT 9999 SCT026 BKN032 07/03 Q0976
TAF EGFF 122300Z 1300/1324 29020G35KT 9999 FEW015 SCT025
PROB30
TEMPO 1300/1312 7000 SHRA
PROB30
TEMPO 1300/1316 29030G43KT
BECMG 1316/1319 27012KT
PROB30
TEMPO 1319/1324 28015G25KT
PROB30
TEMPO 1322/1324 7000 SHRA BKN014
EGTE 130220Z 29023G43KT 270V330 9000 -SHRA FEW015 SCT025 06/04 Q0978 RESHRA
TAF EGTE 122300Z 1300/1309 27020G35KT 9999 SCT025
TEMPO 1300/1309 7000 SHRA BKN012
PROB30
TEMPO 1300/1309 4000 +SHRA BKN009
EGPF 130320Z AUTO 25005KT 9999 BKN023 02/02 Q0970
EGPF 130250Z AUTO 27006KT 9999 -RA BKN020 BKN039 03/02 Q0970
EGPF 130220Z AUTO 26005KT 9999 -RA BKN019 OVC037 03/03 Q0970
TAF EGPF 122301Z 1300/1324 29007KT 9999 SCT015
TEMPO 1300/1304 6000 -RADZ BKN010
PROB30
TEMPO 1300/1303 4000 RADZ BKN005
EGPH 130320Z 27006KT 9000 OVC011 04/04 Q0969
EGPH 130250Z 28005KT 260V320 8000 -RA OVC009 04/04 Q0969
EGPH 130220Z 29005KT 8000 -RA OVC008 04/04 Q0969
TAF EGPH 122301Z 1300/1324 28009KT 9999 SCT020
TEMPO 1300/1310 6000 -RADZ BKN010
PROB30
TEMPO 1300/1305 4000 RADZ BKN005
EGPK 130250Z 07002KT 9999 -RADZ SCT015 BKN040 02/01 Q0971
TAF EGPK 122301Z 1300/1324 VRB03KT 9999 SCT015
TEMPO 1300/1306 6000 -RADZ BKN010
PROB30
TEMPO 1300/1304 4000 RADZ BKN006
BECMG 1303/1306 31010KT
BECMG 1318/1321 25012KT
PROB30
TEMPO 1318/1321 8000 -RA BKN014
TEMPO 1321/1324 6000 RA BKN012
PROB30
TEMPO 1321/1324 4000 +RA BKN008
EHAM 130325Z 15016KT 9999 FEW008 BKN011 04/03 Q0974 NOSIG
EHAM 130255Z 15016KT 120V180 9999 FEW007 SCT009 BKN012 04/03 Q0974 NOSIG
EHAM 130225Z 15018KT 9999 FEW008 SCT010 BKN013 04/03 Q0975 NOSIG
TAF COR EHAM 130125Z 1300/1406 15022G32KT 9999 SCT012 BKN017
TEMPO 1302/1305 BKN007
BECMG 1303/1305 13010KT
PROB40 1305/1315 4000 RADZ BKN007
BECMG 1306/1309 09005KT
TEMPO 1309/1315 VRB03KT
BECMG 1314/1317 28010KT BKN025
BECMG 1317/1320 26015KT
PROB30
TEMPO 1317/1324 7000 -SHRA SCT015TCU BKN020
BECMG 1402/1405 26018G28KT 5000 RA BKN010 OVC015
LFLS 130330Z AUTO 14008KT 080V200 9999 -RA SCT016/// SCT022/// OVC045/// ///TCU
06/04 Q0990
LFLS 130300Z AUTO 17013KT 150V220 9999 -RA BKN040/// OVC046/// ///TCU 06/05
Q0991
LFLS 130230Z AUTO 18018KT 7000 RA FEW019/// OVC041/// ///CB 06/05 Q0992
LFLS 130200Z AUTO 19018KT 9999 -RA FEW018/// OVC044/// ///TCU 06/04 Q0992
TAF LFLS 130200Z 1303/1403 20020G33KT 9999 SCT030 BKN050
TEMPO 1303/1309 4000 RA
PROB30
TEMPO 1307/1309 30015G30KT 2500 SHRA
FM130900 23012KT 9999 FEW050
BECMG 1309/1311 29013KT FEW020TCU BKN040
PROB40
TEMPO 1311/1318 30015G30KT 4000 SHRA FEW020CB BKN030
BECMG 1318/1320 VRB02KT 9999 SCT050
TEMPO 1321/1403 20015G25KT RA OVC035
LFLL 130330Z 19021KT 9999 -RA FEW013 BKN041 06/05 Q0988 TEMPO 18020G35KT
LFLL 130300Z 18020KT 9999 FEW011 BKN041 06/05 Q0989 RERA TEMPO 18020G35KT
LFLL 130230Z 18020KT 8000 RA FEW011 OVC048 06/05 Q0990 TEMPO 18020G35KT
LFLL 130200Z 19019G30KT 9999 -RA FEW015 OVC054 06/05 Q0991 TEMPO 18020G35KT
TAF LFLL 122300Z 1300/1406 18015G25KT 9999 -RA FEW015 OVC040
TEMPO 1300/1307 18025G38KT
TEMPO 1306/1308 3000 RA SCT010 FEW030TCU OVC040
FM130900 28012G25KT 9999 NSW SCT030
TEMPO 1309/1317 28020G35KT 4000 SHRA FEW020CB BKN025TCU
BECMG 1319/1321 16010KT -RA OVC040
LFLC 130330Z AUTO 18009KT 9999 -RA FEW038/// BKN060/// BKN074/// ///CB 11/08
Q0985
LFLC 130300Z AUTO 17011KT 9999 -RA FEW038/// SCT062/// BKN076/// ///TCU 10/07
Q0986
LFLC 130230Z AUTO 17008KT 140V210 9999 -RA BKN034/// BKN042/// BKN056/// ///CB
07/06 Q0987
LFLC 130200Z AUTO 20007KT 9999 RA BKN034/// BKN054/// BKN066/// ///TCU 07/05
Q0988
TAF LFLC 130200Z 1303/1403 18015G25KT 9999 BKN035
TEMPO 1303/1308 4000 RA
BECMG 1303/1305 25020G35KT
PROB30
TEMPO 1305/1307 29025G45KT 2500 SHRA FEW035CB BKN040
FM130800 29015G30KT 9999 SCT035
PROB40
TEMPO 1310/1318 SHRA FEW035TCU BKN040
BECMG 1318/1321 18006KT RA BKN025
TEMPO 1323/1403 25020G40KT
LFRD 130330Z AUTO 30025G40KT 9999 FEW020/// BKN034/// BKN042/// ///TCU 07/05
Q0984
LFRD 130300Z AUTO 30022G32KT 9999 FEW007/// SCT040/// BKN056/// ///TCU 08/04
Q0984
LFRD 130230Z AUTO 29026G43KT 9999 FEW026/// BKN033/// BKN039/// ///TCU 09/05
Q0983
LFRD 130200Z AUTO 29026G37KT 9999 FEW028/// BKN033/// BKN048/// ///TCU 09/06
Q0982
TAF LFRD 122300Z 1300/1324 27025G40KT 9999 BKN020
TEMPO 1300/1312 28030G50KT 4000 SHRA BKN015TCU
TEMPO 1300/1318 5000 SHRA
BECMG 1314/1316 27020G30KT
BECMG 1316/1318 23012KT
TEMPO 1318/1324 4000 RA BKN010
BECMG 1318/1320 25020G30KT
BECMG 1320/1322 27025G40KT
PROB40
TEMPO 1322/1324 27030G50KT
LFRC 130330Z AUTO 29028G41KT 9999 BKN030/// BKN036/// ///TCU 08/03 Q0979
LFRC 130300Z AUTO 30027G43KT 9999 SCT032/// BKN043/// BKN054/// ///CB 09/03
Q0979
LFRC 130230Z AUTO 29027G42KT 9999 SCT028/// BKN033/// BKN049/// ///CB 09/04
Q0978
LFRC 130200Z AUTO 30028G42KT 9999 BKN035/// BKN041/// BKN047/// ///TCU 09/03
Q0978
VHHH 130330Z 09011KT 060V120 9999 FEW035 23/13 Q1024 NOSIG
VHHH 130300Z 08011KT 9999 FEW035 21/12 Q1024 NOSIG
VHHH 130230Z 09011KT 060V120 9999 FEW035 21/12 Q1024 NOSIG
VHHH 130200Z 11011KT 080V150 9999 FEW035 21/13 Q1024 NOSIG
TAF VHHH 122300Z 1300/1406 09010KT 9000 FEW025 TX23/1307Z TX23/1406Z TN18/1323Z
TEMPO 1305/1309 29010KT